Houche-Al-Oumara, Lebanon
Current Conditions -  °F | °C
As of 1:00 PM on Tuesday 21 Oct 2014 (Local Time) from OLBA Reporting Station
Few Clouds Few Clouds  
Wind Chill: 73°   Ceiling: Unl
Heat Index: 73°   Visibility: 6mi
Dew Point: 48°   Wind: 9mph
Humidity: 41%   Direction: 300°WNW
Pressure: 30.03"   Gusts: NA
Location:  33.82°N, 35.85°E
Report Text: OLBA 211000Z 30008KT 9999 FEW026 23/09 Q1017
Loading
Personal Weather Stations






























Interactive Weather Map
Tropical Storm Tracking
New forecast layout! Learn more

10-Day Weather Forecast

Advertisements
Track Severe Weather on mobile